Larto, Louisiana
Current Conditions -  °F | °C
As of 5:14 AM on Friday 19 Dec 2014 (Local Time) from KESF Reporting Station
Light Rain Light Rain  
Wind Chill: 51°   Ceiling: 400
Heat Index: 51°   Visibility: 10mi
Dew Point: 50°   Wind: 3mph
Humidity: 96%   Direction: NA
Pressure: 30.12"   Gusts: NA
Location:  31.5028°N, 91.9028°W
Report Text: KESF 191114Z AUTO VRB03KT 10SM -RA OVC004 11/10 A3012 RMK AO2 PRESRR P0001 T01060100
Loading
Personal Weather Stations






























Interactive Weather Map New forecast layout! Learn more

10-Day Weather Forecast

Advertisements
Track Severe Weather on mobile